createdAt,value
2022-12-18T00:02:25.827Z,101917.66
2022-12-18T00:04:53.202Z,101929.38
2022-12-18T00:07:20.651Z,101922.22
2022-12-18T00:09:48.067Z,101938.06
2022-12-18T00:12:15.525Z,101934.03
2022-12-18T00:14:43.318Z,101936.78
2022-12-18T00:17:10.848Z,101932.38
2022-12-18T00:19:38.309Z,101930.00
2022-12-18T00:22:07.043Z,101923.63
2022-12-18T00:24:34.444Z,101929.09
2022-12-18T00:27:01.945Z,101927.44
2022-12-18T00:29:29.415Z,101925.81
2022-12-18T00:31:56.903Z,101922.22
2022-12-18T00:34:24.318Z,101941.59
2022-12-18T00:36:53.389Z,101947.94
2022-12-18T00:39:20.795Z,101939.94
2022-12-18T00:42:25.588Z,101955.91
2022-12-18T00:44:52.944Z,101933.03
2022-12-18T00:47:20.300Z,101955.16
2022-12-18T00:49:47.801Z,101965.75
2022-12-18T00:52:15.317Z,101969.25
2022-12-18T00:54:42.763Z,101964.75
2022-12-18T00:57:10.164Z,101979.94
2022-12-18T00:59:37.660Z,101982.72
2022-12-18T01:02:05.264Z,101979.97
2022-12-18T01:04:33.705Z,101979.09
2022-12-18T01:07:04.239Z,101978.44
2022-12-18T01:09:32.481Z,101990.66
2022-12-18T01:11:59.895Z,101983.53
2022-12-18T01:14:27.376Z,101994.06
2022-12-18T01:16:54.906Z,102005.47
2022-12-18T01:19:24.892Z,102003.50
2022-12-18T01:21:53.536Z,102012.41
2022-12-18T01:24:21.031Z,102010.59
2022-12-18T01:26:51.445Z,102006.13
2022-12-18T01:29:18.867Z,102018.56
2022-12-18T01:31:46.448Z,102018.56
2022-12-18T01:34:14.372Z,102017.69
2022-12-18T01:36:42.881Z,102030.31
2022-12-18T01:39:14.890Z,102032.91
2022-12-18T01:42:01.821Z,102038.19
2022-12-18T01:44:50.602Z,102033.75
2022-12-18T01:47:29.819Z,102030.44
2022-12-18T01:49:59.577Z,102032.13
2022-12-18T01:52:30.325Z,102041.91
2022-12-18T01:54:58.060Z,102043.66
2022-12-18T01:57:29.063Z,102049.69
2022-12-18T02:00:00.748Z,102036.31
2022-12-18T02:02:30.109Z,102045.09
2022-12-18T02:04:57.983Z,102041.59
2022-12-18T02:08:02.982Z,102055.91
2022-12-18T02:10:41.426Z,102070.16
2022-12-18T02:13:44.943Z,102048.84
2022-12-18T02:16:21.730Z,102068.44
2022-12-18T02:18:55.413Z,102062.28
2022-12-18T02:21:49.027Z,102066.63
2022-12-18T02:24:45.493Z,102063.91
2022-12-18T02:27:14.386Z,102048.72
2022-12-18T02:29:56.034Z,102069.19
2022-12-18T02:32:35.365Z,102067.47
2022-12-18T02:35:07.116Z,102066.59
2022-12-18T02:37:37.336Z,102077.16
2022-12-18T02:40:07.427Z,102084.16
2022-12-18T02:42:37.129Z,102086.78
2022-12-18T02:45:07.817Z,102089.28
2022-12-18T02:47:44.585Z,102090.09
2022-12-18T02:50:28.892Z,102093.84
2022-12-18T02:53:44.907Z,102098.09
2022-12-18T02:56:21.548Z,102095.53
2022-12-18T02:59:14.916Z,102099.13
2022-12-18T03:01:59.942Z,102093.88
2022-12-18T03:04:38.014Z,102106.13
2022-12-18T03:07:11.685Z,102097.53
2022-12-18T03:09:43.612Z,102094.75
2022-12-18T03:12:25.600Z,102101.88
2022-12-18T03:15:08.045Z,102100.00
2022-12-18T03:20:47.184Z,102103.50
2022-12-18T03:23:26.267Z,102093.78
2022-12-18T03:26:01.862Z,102098.31
2022-12-18T03:28:36.689Z,102101.81
2022-12-18T03:31:09.686Z,102096.50
2022-12-18T03:33:41.612Z,102095.56
2022-12-18T03:36:09.524Z,102106.97
2022-12-18T03:38:37.061Z,102101.69
2022-12-18T03:41:17.731Z,102106.97
2022-12-18T03:44:25.536Z,102106.13
2022-12-18T03:46:57.901Z,102127.34
2022-12-18T03:49:37.631Z,102128.19
2022-12-18T03:52:27.003Z,102119.41
2022-12-18T03:54:57.645Z,102125.63
2022-12-18T03:57:29.467Z,102122.03
2022-12-18T04:00:03.350Z,102131.75
2022-12-18T04:02:46.584Z,102129.91
2022-12-18T04:05:21.319Z,102132.63
2022-12-18T04:07:52.395Z,102147.50
2022-12-18T04:10:19.835Z,102144.84
2022-12-18T04:12:47.749Z,102143.25
2022-12-18T04:15:16.154Z,102155.69
2022-12-18T04:18:25.051Z,102129.03
2022-12-18T04:20:53.013Z,102152.19
2022-12-18T04:23:20.409Z,102144.97
2022-12-18T04:25:49.089Z,102154.66
2022-12-18T04:28:24.027Z,102152.94
2022-12-18T04:30:51.588Z,102144.94
2022-12-18T04:33:21.022Z,102155.50
2022-12-18T04:35:48.769Z,102167.88
2022-12-18T04:38:16.569Z,102178.41
2022-12-18T04:40:44.461Z,102174.22
2022-12-18T04:43:21.180Z,102180.22
2022-12-18T04:45:48.571Z,102160.72
2022-12-18T04:48:16.028Z,102171.31
2022-12-18T04:50:43.496Z,102187.06
2022-12-18T04:53:10.848Z,102196.00
2022-12-18T04:55:38.315Z,102188.88
2022-12-18T04:58:06.265Z,102182.53
2022-12-18T05:00:33.816Z,102195.94
2022-12-18T05:03:03.348Z,102205.69
2022-12-18T05:05:31.115Z,102197.81
2022-12-18T05:07:58.579Z,102191.56
2022-12-18T05:10:26.080Z,102206.47
2022-12-18T05:13:00.363Z,102218.84
2022-12-18T05:15:33.420Z,102214.47
2022-12-18T05:18:11.504Z,102219.84
2022-12-18T05:20:40.323Z,102203.00
2022-12-18T05:23:08.178Z,102218.13
2022-12-18T05:25:35.828Z,102219.00
2022-12-18T05:28:03.652Z,102225.13
2022-12-18T05:30:31.091Z,102221.50
2022-12-18T05:32:58.446Z,102216.91
2022-12-18T05:35:25.871Z,102223.19
2022-12-18T05:37:53.280Z,102237.44
2022-12-18T05:40:20.694Z,102240.00
2022-12-18T05:42:48.072Z,102252.47
2022-12-18T05:45:15.581Z,102250.41
2022-12-18T05:47:43.124Z,102250.44
2022-12-18T05:50:10.720Z,102251.41
2022-12-18T05:52:38.166Z,102255.00
2022-12-18T05:55:05.940Z,102255.84
2022-12-18T05:57:33.377Z,102251.47
2022-12-18T06:00:01.253Z,102257.66
2022-12-18T06:02:28.786Z,102249.59
2022-12-18T06:04:56.211Z,102261.09
2022-12-18T06:07:23.624Z,102279.50
2022-12-18T06:09:51.142Z,102281.34
2022-12-18T06:12:18.593Z,102290.22
2022-12-18T06:14:46.079Z,102289.44
2022-12-18T06:17:13.442Z,102272.66
2022-12-18T06:19:40.911Z,102295.63
2022-12-18T06:22:08.552Z,102302.72
2022-12-18T06:24:36.115Z,102301.69
2022-12-18T06:27:03.516Z,102308.72
2022-12-18T06:29:31.088Z,102301.69
2022-12-18T06:31:58.582Z,102305.19
2022-12-18T06:34:26.064Z,102315.75
2022-12-18T06:36:53.495Z,102322.03
2022-12-18T06:39:20.895Z,102323.69
2022-12-18T06:41:48.299Z,102324.69
2022-12-18T06:44:15.872Z,102338.00
2022-12-18T06:46:43.330Z,102330.91
2022-12-18T06:49:10.818Z,102321.88
2022-12-18T06:51:38.356Z,102330.78
2022-12-18T06:54:06.459Z,102331.44
2022-12-18T06:56:33.949Z,102336.81
2022-12-18T06:59:01.751Z,102337.00
2022-12-18T07:01:29.270Z,102342.34
2022-12-18T07:03:58.069Z,102347.47
2022-12-18T07:06:27.188Z,102350.94
2022-12-18T07:08:55.272Z,102348.22
2022-12-18T07:11:23.082Z,102357.22
2022-12-18T07:13:50.384Z,102353.59
2022-12-18T07:16:24.710Z,102371.31
2022-12-18T07:18:55.097Z,102362.50
2022-12-18T07:21:23.637Z,102374.91
2022-12-18T07:23:51.324Z,102380.22
2022-12-18T07:26:20.721Z,102378.56
2022-12-18T07:28:49.148Z,102380.31
2022-12-18T07:31:20.333Z,102390.97
2022-12-18T07:33:49.279Z,102394.47
2022-12-18T07:36:17.149Z,102389.13
2022-12-18T07:38:47.308Z,102399.88
2022-12-18T07:41:14.724Z,102400.72
2022-12-18T07:43:43.217Z,102400.72
2022-12-18T07:46:13.516Z,102408.78
2022-12-18T07:48:42.647Z,102405.25
2022-12-18T07:51:13.554Z,102417.59
2022-12-18T07:53:41.597Z,102408.84
2022-12-18T07:56:27.325Z,102424.75
2022-12-18T07:58:55.759Z,102435.34
2022-12-18T08:01:23.320Z,102436.88
2022-12-18T08:03:52.341Z,102443.34
2022-12-18T08:06:22.562Z,102449.53
2022-12-18T08:08:53.433Z,102458.53
2022-12-18T08:11:20.903Z,102462.97
2022-12-18T08:13:48.971Z,102462.81
2022-12-18T08:16:18.063Z,102468.25
2022-12-18T08:18:45.484Z,102462.91
2022-12-18T08:21:16.140Z,102478.22
2022-12-18T08:23:44.214Z,102479.94
2022-12-18T08:26:13.004Z,102472.94
2022-12-18T08:28:41.034Z,102472.22
2022-12-18T08:31:09.497Z,102481.81
2022-12-18T08:33:39.019Z,102488.06
2022-12-18T08:36:07.134Z,102485.75
2022-12-18T08:38:34.562Z,102507.72
2022-12-18T08:41:03.594Z,102503.31
2022-12-18T08:43:49.660Z,102506.75
2022-12-18T08:46:19.105Z,102514.69
2022-12-18T08:48:47.101Z,102514.69
2022-12-18T08:51:17.373Z,102521.06
2022-12-18T08:53:45.654Z,102522.84
2022-12-18T08:56:14.213Z,102520.28
2022-12-18T08:58:42.075Z,102529.09
2022-12-18T09:01:12.073Z,102508.78
2022-12-18T09:03:40.411Z,102526.72
2022-12-18T09:06:08.622Z,102517.13
2022-12-18T09:08:36.326Z,102533.25
2022-12-18T09:11:04.100Z,102541.91
2022-12-18T09:13:31.813Z,102543.75
2022-12-18T09:15:59.354Z,102541.91
2022-12-18T09:18:26.679Z,102529.59
2022-12-18T09:20:54.199Z,102532.34
2022-12-18T09:23:22.014Z,102528.88
2022-12-18T09:25:49.741Z,102538.16
2022-12-18T09:28:19.232Z,102531.16
2022-12-18T09:30:49.793Z,102529.56
2022-12-18T09:33:18.072Z,102533.88
2022-12-18T09:35:46.725Z,102528.47
2022-12-18T09:38:20.062Z,102520.53
2022-12-18T09:40:54.645Z,102535.53
2022-12-18T09:43:42.225Z,102538.16
2022-12-18T09:46:19.396Z,102522.44
2022-12-18T09:48:50.916Z,102526.88
2022-12-18T09:51:25.932Z,102527.75
2022-12-18T09:53:59.439Z,102522.31
2022-12-18T09:56:32.650Z,102522.19
2022-12-18T09:59:02.777Z,102524.03
2022-12-18T10:01:41.491Z,102523.22
2022-12-18T10:04:11.313Z,102531.28
2022-12-18T10:07:09.173Z,102514.50
2022-12-18T10:09:48.304Z,102505.06
2022-12-18T10:12:49.160Z,102522.06
2022-12-18T10:15:54.054Z,102497.47
2022-12-18T10:19:03.219Z,102475.84
2022-12-18T10:21:45.551Z,102508.75
2022-12-18T10:24:21.280Z,102507.72
2022-12-18T10:26:49.028Z,102509.47
2022-12-18T10:29:18.192Z,102513.91
2022-12-18T10:31:45.587Z,102513.22
2022-12-18T10:34:15.473Z,102518.59
2022-12-18T10:36:43.357Z,102515.00
2022-12-18T10:39:17.010Z,102515.13
2022-12-18T10:41:44.404Z,102515.88
2022-12-18T10:44:21.351Z,102518.66
2022-12-18T10:46:57.048Z,102511.78
2022-12-18T10:49:28.633Z,102512.44
2022-12-18T10:52:22.928Z,102515.81
2022-12-18T10:54:53.392Z,102523.78
2022-12-18T10:57:26.956Z,102515.81
2022-12-18T10:59:56.903Z,102516.72
2022-12-18T11:02:28.809Z,102520.25
2022-12-18T11:04:59.313Z,102517.59
2022-12-18T11:07:26.628Z,102505.25
2022-12-18T11:10:16.945Z,102503.56
2022-12-18T11:12:44.439Z,102501.09
2022-12-18T11:15:30.764Z,102498.44
2022-12-18T11:17:58.163Z,102494.00
2022-12-18T11:20:58.195Z,102493.13
2022-12-18T11:23:27.265Z,102494.13
2022-12-18T11:26:03.497Z,102491.47
2022-12-18T11:28:42.456Z,102492.38
2022-12-18T11:31:28.851Z,102491.50
2022-12-18T11:37:00.694Z,102485.31
2022-12-18T11:39:27.978Z,102481.88
2022-12-18T11:42:13.584Z,102476.69
2022-12-18T11:44:43.897Z,102480.25
2022-12-18T11:47:20.452Z,102473.06
2022-12-18T11:49:52.256Z,102476.56
2022-12-18T11:52:24.981Z,102474.66
2022-12-18T11:54:54.367Z,102473.84
2022-12-18T11:57:53.759Z,102467.88
2022-12-18T12:00:22.403Z,102466.09
2022-12-18T12:03:11.319Z,102465.28
2022-12-18T12:05:57.057Z,102460.31
2022-12-18T12:08:45.997Z,102466.19
2022-12-18T12:11:25.573Z,102465.53
2022-12-18T12:14:04.994Z,102477.13
2022-12-18T12:16:44.422Z,102465.59
2022-12-18T12:20:10.680Z,102459.25
2022-12-18T12:23:05.494Z,102469.06
2022-12-18T12:25:45.767Z,102462.75
2022-12-18T12:28:31.879Z,102466.50
2022-12-18T12:31:17.025Z,102470.94
2022-12-18T12:34:02.276Z,102468.19
2022-12-18T12:37:03.725Z,102456.84
2022-12-18T12:39:39.019Z,102469.16
2022-12-18T12:42:35.273Z,102453.94
2022-12-18T12:45:06.968Z,102448.59
2022-12-18T12:47:42.700Z,102468.09
2022-12-18T12:50:16.620Z,102442.41
2022-12-18T12:52:48.536Z,102451.28
2022-12-18T12:55:23.206Z,102462.69
2022-12-18T12:58:02.275Z,102465.41
2022-12-18T13:00:40.908Z,102453.22
2022-12-18T13:03:48.396Z,102447.13
2022-12-18T13:06:44.415Z,102448.03
2022-12-18T13:09:12.785Z,102442.59
2022-12-18T13:12:02.137Z,102448.03
2022-12-18T13:14:32.966Z,102443.59
2022-12-18T13:17:22.153Z,102435.56
2022-12-18T13:20:04.282Z,102428.44
2022-12-18T13:22:38.057Z,102439.09
2022-12-18T13:25:31.153Z,102431.91
2022-12-18T13:28:03.165Z,102436.50
2022-12-18T13:30:33.185Z,102430.38
2022-12-18T13:33:15.557Z,102426.69
2022-12-18T13:35:46.781Z,102431.91
2022-12-18T13:38:32.288Z,102424.16
2022-12-18T13:41:02.543Z,102429.44
2022-12-18T13:43:45.330Z,102437.38
2022-12-18T13:46:22.253Z,102438.09
2022-12-18T13:48:51.467Z,102440.78
2022-12-18T13:51:20.980Z,102432.88
2022-12-18T13:53:57.888Z,102436.44
2022-12-18T13:56:29.447Z,102443.50
2022-12-18T13:59:22.077Z,102440.88
2022-12-18T14:01:59.332Z,102441.81
2022-12-18T14:04:34.636Z,102444.31
2022-12-18T14:07:11.602Z,102435.59
2022-12-18T14:09:44.432Z,102435.63
2022-12-18T14:12:56.633Z,102424.91
2022-12-18T14:15:27.220Z,102434.72
2022-12-18T14:17:59.448Z,102432.78
2022-12-18T14:20:29.509Z,102438.03
2022-12-18T14:22:58.620Z,102439.72
2022-12-18T14:25:31.021Z,102433.56
2022-12-18T14:28:15.144Z,102437.09
2022-12-18T14:30:44.505Z,102423.75
2022-12-18T14:33:16.810Z,102435.38
2022-12-18T14:35:55.112Z,102435.22
2022-12-18T14:38:28.142Z,102432.63
2022-12-18T14:40:56.430Z,102438.75
2022-12-18T14:43:28.278Z,102436.91
2022-12-18T14:45:56.851Z,102447.50
2022-12-18T14:48:43.621Z,102444.75
2022-12-18T14:51:16.079Z,102452.72
2022-12-18T14:54:05.434Z,102445.66
2022-12-18T14:56:38.482Z,102449.06
2022-12-18T14:59:25.215Z,102455.28
2022-12-18T15:01:59.632Z,102455.22
2022-12-18T15:04:44.636Z,102464.00
2022-12-18T15:07:14.644Z,102462.16
2022-12-18T15:09:45.600Z,102470.94
2022-12-18T15:12:43.456Z,102475.28
2022-12-18T15:15:38.749Z,102473.44
2022-12-18T15:18:09.679Z,102470.78
2022-12-18T15:20:43.717Z,102475.00
2022-12-18T15:23:51.585Z,102471.53
2022-12-18T15:26:21.842Z,102478.53
2022-12-18T15:28:53.578Z,102478.50
2022-12-18T15:31:35.806Z,102482.03
2022-12-18T15:34:20.255Z,102497.94
2022-12-18T15:36:47.919Z,102496.97
2022-12-18T15:39:15.316Z,102487.25
2022-12-18T15:42:03.034Z,102484.53
2022-12-18T15:44:33.724Z,102502.94
2022-12-18T15:47:01.135Z,102496.56
2022-12-18T15:49:28.515Z,102500.81
2022-12-18T15:51:59.074Z,102516.66
2022-12-18T15:54:56.270Z,102523.88
2022-12-18T15:57:27.528Z,102503.50
2022-12-18T15:59:59.125Z,102512.38
2022-12-18T16:02:27.374Z,102520.22
2022-12-18T16:04:55.222Z,102513.81
2022-12-18T16:07:24.920Z,102518.88
2022-12-18T16:09:53.643Z,102521.63
2022-12-18T16:12:26.136Z,102508.25
2022-12-18T16:14:53.601Z,102505.72
2022-12-18T16:17:21.010Z,102509.16
2022-12-18T16:19:48.591Z,102511.63
2022-12-18T16:22:28.153Z,102517.91
2022-12-18T16:24:57.296Z,102524.94
2022-12-18T16:27:25.952Z,102533.09
2022-12-18T16:29:53.404Z,102530.88
2022-12-18T16:32:22.493Z,102528.13
2022-12-18T16:34:51.056Z,102527.13
2022-12-18T16:37:18.652Z,102532.41
2022-12-18T16:39:46.136Z,102537.53
2022-12-18T16:42:20.015Z,102538.31
2022-12-18T16:44:49.081Z,102534.69
2022-12-18T16:47:17.159Z,102530.25
2022-12-18T16:49:51.768Z,102539.97
2022-12-18T16:52:20.183Z,102532.81
2022-12-18T16:54:47.733Z,102525.72
2022-12-18T16:57:18.081Z,102515.81
2022-12-18T16:59:46.084Z,102535.25
2022-12-18T17:02:24.513Z,102535.41
2022-12-18T17:04:56.829Z,102528.13
2022-12-18T17:07:25.463Z,102540.59
2022-12-18T17:09:54.321Z,102527.19
2022-12-18T17:12:22.494Z,102549.25
2022-12-18T17:14:50.163Z,102541.00
2022-12-18T17:17:21.396Z,102549.72
2022-12-18T17:19:51.750Z,102541.81
2022-12-18T17:22:20.264Z,102544.34
2022-12-18T17:24:48.043Z,102553.91
2022-12-18T17:27:15.826Z,102559.28
2022-12-18T17:29:47.807Z,102546.00
2022-12-18T17:32:17.099Z,102537.16
2022-12-18T17:34:44.685Z,102553.59
2022-12-18T17:37:12.528Z,102557.84
2022-12-18T17:39:39.965Z,102555.22
2022-12-18T17:42:08.681Z,102564.16
2022-12-18T17:44:38.336Z,102552.56
2022-12-18T17:47:06.242Z,102558.03
2022-12-18T17:49:33.717Z,102558.81
2022-12-18T17:52:01.148Z,102579.16
2022-12-18T17:54:28.619Z,102555.81
2022-12-18T17:56:56.058Z,102578.75
2022-12-18T17:59:24.408Z,102568.19
2022-12-18T18:01:51.966Z,102564.56
2022-12-18T18:04:19.744Z,102575.03
2022-12-18T18:06:47.212Z,102563.94
2022-12-18T18:09:16.427Z,102578.16
2022-12-18T18:12:06.175Z,102569.59
2022-12-18T18:14:33.739Z,102566.88
2022-12-18T18:17:04.205Z,102583.47
2022-12-18T18:19:57.243Z,102590.34
2022-12-18T18:22:24.804Z,102592.06
2022-12-18T18:24:52.640Z,102594.75
2022-12-18T18:27:20.003Z,102573.44
2022-12-18T18:29:47.735Z,102582.19
2022-12-18T18:32:15.101Z,102577.56
2022-12-18T18:34:42.746Z,102562.38
2022-12-18T18:37:11.809Z,102579.31
2022-12-18T18:39:39.299Z,102562.78
2022-12-18T18:42:07.025Z,102568.00
2022-12-18T18:44:35.221Z,102568.03
2022-12-18T18:47:02.701Z,102556.38
2022-12-18T18:49:33.008Z,102555.47
2022-12-18T18:52:01.620Z,102567.78
2022-12-18T18:54:29.470Z,102562.44
2022-12-18T18:57:19.892Z,102569.47
2022-12-18T18:59:44.220Z,102574.53
2022-12-18T19:02:13.433Z,102572.69
2022-12-18T19:04:43.654Z,102579.69
2022-12-18T19:07:28.129Z,102584.03
2022-12-18T19:10:03.468Z,102594.34
2022-12-18T19:12:50.840Z,102580.16
2022-12-18T19:15:18.387Z,102595.84
2022-12-18T19:17:47.217Z,102593.41
2022-12-18T19:20:15.919Z,102591.88
2022-12-18T19:22:43.405Z,102578.31
2022-12-18T19:25:13.536Z,102590.84
2022-12-18T19:27:41.022Z,102582.06
2022-12-18T19:30:09.197Z,102583.69
2022-12-18T19:32:36.676Z,102578.19
2022-12-18T19:35:04.316Z,102592.28
2022-12-18T19:37:31.954Z,102577.97
2022-12-18T19:39:59.596Z,102590.88
2022-12-18T19:42:35.191Z,102599.09
2022-12-18T19:45:06.548Z,102593.66
2022-12-18T19:47:33.902Z,102591.69
2022-12-18T19:50:01.295Z,102588.84
2022-12-18T19:52:28.865Z,102596.06
2022-12-18T19:54:56.365Z,102589.78
2022-12-18T19:57:23.775Z,102587.97
2022-12-18T19:59:51.197Z,102599.16
2022-12-18T20:02:20.125Z,102600.63
2022-12-18T20:04:49.083Z,102606.09
2022-12-18T20:07:16.538Z,102606.31
2022-12-18T20:09:44.035Z,102607.97
2022-12-18T20:12:12.017Z,102610.22
2022-12-18T20:14:39.397Z,102613.50
2022-12-18T20:17:06.885Z,102618.06
2022-12-18T20:19:36.894Z,102619.78
2022-12-18T20:22:04.576Z,102626.78
2022-12-18T20:24:32.055Z,102637.94
2022-12-18T20:26:59.545Z,102640.56
2022-12-18T20:29:26.909Z,102649.28
2022-12-18T20:31:54.381Z,102640.47
2022-12-18T20:34:22.104Z,102646.81
2022-12-18T20:36:50.146Z,102651.13
2022-12-18T20:39:18.773Z,102639.22
2022-12-18T20:41:46.574Z,102639.63
2022-12-18T20:44:22.715Z,102632.81
2022-12-18T20:46:56.723Z,102639.25
2022-12-18T20:49:25.769Z,102635.75
2022-12-18T20:51:56.175Z,102640.72
2022-12-18T20:54:26.815Z,102640.72
2022-12-18T20:56:54.564Z,102643.69
2022-12-18T20:59:23.301Z,102648.44
2022-12-18T21:01:52.136Z,102653.97
2022-12-18T21:04:22.990Z,102649.47
2022-12-18T21:06:55.727Z,102661.72
2022-12-18T21:09:37.107Z,102657.41
2022-12-18T21:12:33.483Z,102659.56
2022-12-18T21:15:10.967Z,102670.69
2022-12-18T21:17:44.224Z,102677.66
2022-12-18T21:20:17.288Z,102673.00
2022-12-18T21:22:45.785Z,102666.03
2022-12-18T21:25:13.152Z,102671.38
2022-12-18T21:27:41.135Z,102668.19
2022-12-18T21:30:09.011Z,102670.75
2022-12-18T21:32:36.718Z,102672.38
2022-12-18T21:35:04.372Z,102662.09
2022-12-18T21:37:31.815Z,102678.81
2022-12-18T21:39:59.158Z,102679.22
2022-12-18T21:42:45.379Z,102678.88
2022-12-18T21:45:12.753Z,102666.38
2022-12-18T21:47:40.208Z,102677.69
2022-12-18T21:50:07.867Z,102679.31
2022-12-18T21:52:35.307Z,102660.63
2022-12-18T21:55:08.924Z,102666.63
2022-12-18T21:57:39.190Z,102663.41
2022-12-18T22:00:11.222Z,102670.34
2022-12-18T22:02:46.826Z,102667.81
2022-12-18T22:05:14.490Z,102669.94
2022-12-18T22:07:41.891Z,102657.69
2022-12-18T22:10:09.649Z,102662.28
2022-12-18T22:12:41.584Z,102667.78
2022-12-18T22:15:17.007Z,102673.78
2022-12-18T22:17:51.047Z,102674.94
2022-12-18T22:20:20.214Z,102680.56
2022-12-18T22:22:48.772Z,102671.00
2022-12-18T22:25:16.277Z,102660.78
2022-12-18T22:28:04.588Z,102663.72
2022-12-18T22:30:32.103Z,102685.00
2022-12-18T22:32:59.731Z,102674.91
2022-12-18T22:35:27.127Z,102664.19
2022-12-18T22:37:54.547Z,102674.16
2022-12-18T22:40:27.075Z,102663.53
2022-12-18T22:42:55.975Z,102666.16
2022-12-18T22:45:26.931Z,102675.06
2022-12-18T22:47:54.555Z,102670.41
2022-12-18T22:50:21.961Z,102667.06
2022-12-18T22:52:49.349Z,102678.00
2022-12-18T22:55:16.901Z,102672.63
2022-12-18T22:57:48.561Z,102675.81
2022-12-18T23:00:24.114Z,102663.72
2022-12-18T23:02:59.294Z,102656.19
2022-12-18T23:05:32.040Z,102655.13
2022-12-18T23:07:59.497Z,102645.72
2022-12-18T23:10:27.453Z,102656.66
2022-12-18T23:12:54.928Z,102665.22
2022-12-18T23:15:27.863Z,102639.78
2022-12-18T23:17:59.384Z,102653.50
2022-12-18T23:20:27.599Z,102644.69
2022-12-18T23:22:55.165Z,102651.09
2022-12-18T23:25:23.013Z,102651.81
2022-12-18T23:27:50.582Z,102657.06
2022-12-18T23:30:17.970Z,102645.78
2022-12-18T23:32:45.430Z,102658.44
2022-12-18T23:35:13.328Z,102654.13
2022-12-18T23:38:00.111Z,102647.09
2022-12-18T23:40:29.338Z,102655.69
2022-12-18T23:42:56.983Z,102664.69
2022-12-18T23:45:24.339Z,102666.38
2022-12-18T23:47:51.807Z,102674.78
2022-12-18T23:50:19.166Z,102669.44
2022-12-18T23:52:50.154Z,102659.50
2022-12-18T23:55:17.696Z,102650.00
2022-12-18T23:57:45.108Z,102660.97
